createdAt,value
2018-05-09T00:00:05.769Z,52.40
2018-05-09T00:01:05.865Z,52.40
2018-05-09T00:02:06.188Z,52.50
2018-05-09T00:03:05.776Z,52.50
2018-05-09T00:04:11.040Z,54.10
2018-05-09T00:05:06.412Z,54.10
2018-05-09T00:06:05.773Z,53.90
2018-05-09T00:07:05.495Z,53.90
2018-05-09T00:08:06.499Z,54.20
2018-05-09T00:09:05.874Z,54.30
2018-05-09T00:10:09.337Z,54.20
2018-05-09T00:11:10.863Z,54.30
2018-05-09T00:12:06.250Z,54.30
2018-05-09T00:13:05.424Z,54.20
2018-05-09T00:14:06.058Z,54.20
2018-05-09T00:15:06.260Z,54.40
2018-05-09T00:16:06.210Z,54.50
2018-05-09T00:17:05.665Z,54.40
2018-05-09T00:18:05.724Z,54.50
2018-05-09T00:19:06.588Z,54.50
2018-05-09T00:20:10.119Z,54.80
2018-05-09T00:21:05.449Z,54.80
2018-05-09T00:22:11.339Z,55.80
2018-05-09T00:23:10.796Z,55.70
2018-05-09T00:24:06.128Z,55.70
2018-05-09T00:25:09.246Z,55.60
2018-05-09T00:26:05.765Z,55.60
2018-05-09T00:27:06.789Z,55.40
2018-05-09T00:28:09.395Z,55.40
2018-05-09T00:29:10.762Z,55.40
2018-05-09T00:30:13.751Z,55.80
2018-05-09T00:31:06.145Z,55.80
2018-05-09T00:32:06.163Z,55.70
2018-05-09T00:33:06.439Z,56.10
2018-05-09T00:34:05.436Z,56.20
2018-05-09T00:35:05.923Z,56.40
2018-05-09T00:36:10.587Z,56.50
2018-05-09T00:37:06.011Z,56.90
2018-05-09T00:38:10.329Z,56.60
2018-05-09T00:39:06.081Z,56.60
2018-05-09T00:40:08.551Z,56.60
2018-05-09T00:41:11.079Z,56.60
2018-05-09T00:42:09.251Z,56.20
2018-05-09T00:43:10.729Z,56.20
2018-05-09T00:44:06.623Z,56.20
2018-05-09T00:45:05.775Z,56.30
2018-05-09T00:46:08.612Z,56.50
2018-05-09T00:47:06.005Z,56.50
2018-05-09T00:48:06.373Z,56.40
2018-05-09T00:49:05.752Z,56.20
2018-05-09T00:50:06.644Z,56.50
2018-05-09T00:51:08.513Z,56.20
2018-05-09T00:52:11.168Z,56.80
2018-05-09T00:53:05.956Z,56.80
2018-05-09T00:54:05.948Z,57.20
2018-05-09T00:55:06.617Z,57.40
2018-05-09T00:56:08.426Z,57.90
2018-05-09T00:57:10.842Z,57.80
2018-05-09T00:58:09.339Z,57.40
2018-05-09T00:59:05.896Z,57.40
2018-05-09T01:00:09.096Z,57.70
2018-05-09T01:01:05.522Z,57.70
2018-05-09T01:02:08.620Z,58.30
2018-05-09T01:03:06.127Z,58.40
2018-05-09T01:04:05.426Z,58.40
2018-05-09T01:05:10.717Z,58.90
2018-05-09T01:06:10.869Z,59.00
2018-05-09T01:07:06.059Z,59.30
2018-05-09T01:08:10.786Z,58.70
2018-05-09T01:09:06.113Z,58.70
2018-05-09T01:10:08.081Z,58.50
2018-05-09T01:11:10.552Z,58.90
2018-05-09T01:12:05.583Z,58.90
2018-05-09T01:13:06.595Z,58.60
2018-05-09T01:14:09.333Z,59.00
2018-05-09T01:15:12.049Z,58.90
2018-05-09T01:16:08.009Z,59.00
2018-05-09T01:17:05.960Z,59.00
2018-05-09T01:18:06.353Z,59.30
2018-05-09T01:19:08.952Z,59.70
2018-05-09T01:20:05.763Z,59.70
2018-05-09T01:21:06.563Z,59.70
2018-05-09T01:22:11.095Z,59.50
2018-05-09T01:23:05.749Z,59.50
2018-05-09T01:24:08.775Z,60.10
2018-05-09T01:25:08.689Z,60.90
2018-05-09T01:26:06.341Z,60.90
2018-05-09T01:27:05.805Z,60.40
2018-05-09T01:28:08.963Z,60.10
2018-05-09T01:29:05.488Z,60.10
2018-05-09T01:30:11.064Z,60.50
2018-05-09T01:31:06.472Z,61.30
2018-05-09T01:32:05.812Z,60.60
2018-05-09T01:33:10.709Z,60.70
2018-05-09T01:34:05.731Z,61.40
2018-05-09T01:35:06.061Z,61.20
2018-05-09T01:36:06.084Z,61.10
2018-05-09T01:37:16.203Z,61.00
2018-05-09T01:38:05.572Z,61.00
2018-05-09T01:39:06.128Z,60.70
2018-05-09T01:40:05.513Z,60.80
2018-05-09T01:41:08.433Z,61.40
2018-05-09T01:42:05.823Z,61.40
2018-05-09T01:43:05.925Z,61.60
2018-05-09T01:44:11.134Z,61.70
2018-05-09T01:45:06.159Z,61.70
2018-05-09T01:46:06.294Z,61.50
2018-05-09T01:47:05.444Z,61.40
2018-05-09T01:48:08.614Z,62.40
2018-05-09T01:49:09.325Z,62.20
2018-05-09T01:50:09.157Z,61.70
2018-05-09T01:51:14.137Z,61.90
2018-05-09T01:52:05.580Z,61.90
2018-05-09T01:53:06.250Z,62.10
2018-05-09T01:54:05.841Z,62.40
2018-05-09T01:55:06.452Z,62.20
2018-05-09T01:56:05.380Z,62.70
2018-05-09T01:57:15.793Z,63.30
2018-05-09T01:58:06.216Z,63.40
2018-05-09T01:59:06.371Z,63.80
2018-05-09T02:00:05.784Z,63.80
2018-05-09T02:01:06.281Z,63.40
2018-05-09T02:02:05.585Z,63.10
2018-05-09T02:03:10.673Z,62.80
2018-05-09T02:04:11.080Z,62.80
2018-05-09T02:05:06.235Z,62.70
2018-05-09T02:06:10.838Z,62.50
2018-05-09T02:07:16.393Z,62.80
2018-05-09T02:08:05.697Z,63.60
2018-05-09T02:09:06.385Z,63.70
2018-05-09T02:10:05.835Z,63.60
2018-05-09T02:11:05.879Z,63.40
2018-05-09T02:12:06.071Z,63.60
2018-05-09T02:13:06.154Z,63.50
2018-05-09T02:14:06.269Z,63.40
2018-05-09T02:15:10.742Z,63.40
2018-05-09T02:16:06.262Z,63.40
2018-05-09T02:17:06.426Z,63.50
2018-05-09T02:18:08.899Z,63.30
2018-05-09T02:19:06.561Z,63.30
2018-05-09T02:20:06.136Z,63.50
2018-05-09T02:21:06.278Z,63.60
2018-05-09T02:22:05.382Z,63.50
2018-05-09T02:23:05.969Z,63.40
2018-05-09T02:24:09.195Z,63.80
2018-05-09T02:25:05.599Z,63.90
2018-05-09T02:26:05.785Z,63.90
2018-05-09T02:27:08.792Z,65.00
2018-05-09T02:28:08.738Z,64.80
2018-05-09T02:29:06.258Z,64.80
2018-05-09T02:30:05.749Z,64.90
2018-05-09T02:31:11.120Z,65.00
2018-05-09T02:32:10.766Z,65.10
2018-05-09T02:33:11.470Z,65.50
2018-05-09T02:34:06.136Z,65.40
2018-05-09T02:35:05.588Z,65.40
2018-05-09T02:36:05.810Z,65.00
2018-05-09T02:37:05.704Z,65.30
2018-05-09T02:38:05.907Z,65.00
2018-05-09T02:39:06.219Z,65.10
2018-05-09T02:40:08.564Z,65.70
2018-05-09T02:41:06.296Z,65.70
2018-05-09T02:42:08.669Z,65.50
2018-05-09T02:43:06.294Z,65.40
2018-05-09T02:44:05.689Z,66.20
2018-05-09T02:45:05.788Z,65.90
2018-05-09T02:46:05.846Z,65.70
2018-05-09T02:47:08.393Z,65.90
2018-05-09T02:48:05.923Z,66.00
2018-05-09T02:49:05.997Z,65.80
2018-05-09T02:50:06.223Z,65.80
2018-05-09T02:51:06.053Z,65.50
2018-05-09T02:52:08.701Z,65.60
2018-05-09T02:53:06.231Z,65.60
2018-05-09T02:54:05.694Z,65.50
2018-05-09T02:55:06.249Z,65.60
2018-05-09T02:56:05.750Z,65.50
2018-05-09T02:57:06.141Z,66.10
2018-05-09T02:58:05.767Z,65.90
2018-05-09T02:59:08.775Z,66.50
2018-05-09T03:00:06.326Z,66.50
2018-05-09T03:01:05.618Z,67.40
2018-05-09T03:02:06.226Z,67.50
2018-05-09T03:03:05.708Z,67.10
2018-05-09T03:04:10.978Z,67.20
2018-05-09T03:05:09.941Z,67.10
2018-05-09T03:06:06.122Z,67.10
2018-05-09T03:07:08.073Z,67.00
2018-05-09T03:08:06.040Z,67.00
2018-05-09T03:09:08.763Z,67.00
2018-05-09T03:10:06.243Z,67.00
2018-05-09T03:11:06.202Z,66.90
2018-05-09T03:12:05.715Z,67.60
2018-05-09T03:13:05.467Z,68.40
2018-05-09T03:14:05.909Z,68.30
2018-05-09T03:15:08.607Z,67.30
2018-05-09T03:16:06.155Z,67.30
2018-05-09T03:17:06.742Z,67.40
2018-05-09T03:18:05.889Z,67.70
2018-05-09T03:19:09.199Z,68.10
2018-05-09T03:20:10.811Z,68.40
2018-05-09T03:21:09.348Z,68.60
2018-05-09T03:22:05.754Z,68.60
2018-05-09T03:23:05.877Z,68.70
2018-05-09T03:24:09.345Z,68.70
2018-05-09T03:25:09.716Z,68.50
2018-05-09T03:26:06.270Z,68.50
2018-05-09T03:27:06.039Z,68.60
2018-05-09T03:28:08.888Z,68.30
2018-05-09T03:29:11.542Z,68.30
2018-05-09T03:30:09.644Z,67.90
2018-05-09T03:31:08.537Z,68.00
2018-05-09T03:32:10.944Z,68.10
2018-05-09T03:33:09.214Z,68.20
2018-05-09T03:34:05.690Z,68.20
2018-05-09T03:35:08.649Z,67.20
2018-05-09T03:36:12.025Z,68.00
2018-05-09T03:37:08.825Z,68.30
2018-05-09T03:38:11.216Z,68.30
2018-05-09T03:39:05.727Z,68.80
2018-05-09T03:40:06.489Z,69.40
2018-05-09T03:41:08.626Z,69.80
2018-05-09T03:42:06.154Z,69.90
2018-05-09T03:43:10.894Z,69.50
2018-05-09T03:44:06.714Z,69.50
2018-05-09T03:45:06.230Z,69.20
2018-05-09T03:46:05.314Z,69.30
2018-05-09T03:47:08.135Z,69.70
2018-05-09T03:48:05.504Z,69.70
2018-05-09T03:49:05.909Z,69.80
2018-05-09T03:50:05.764Z,70.20
2018-05-09T03:51:09.534Z,70.60
2018-05-09T03:52:05.894Z,70.60
2018-05-09T03:53:10.453Z,70.70
2018-05-09T03:54:10.601Z,70.60
2018-05-09T03:55:05.853Z,70.50
2018-05-09T03:56:11.294Z,70.70
2018-05-09T03:57:05.671Z,70.70
2018-05-09T03:58:06.411Z,70.50
2018-05-09T03:59:05.995Z,70.70
2018-05-09T04:00:06.126Z,70.70
2018-05-09T04:01:08.565Z,70.20
2018-05-09T04:02:05.903Z,70.20
2018-05-09T04:03:05.798Z,70.30
2018-05-09T04:04:06.123Z,70.20
2018-05-09T04:05:06.314Z,70.30
2018-05-09T04:06:05.809Z,70.30
2018-05-09T04:07:08.142Z,69.60
2018-05-09T04:08:05.973Z,69.60
2018-05-09T04:09:05.678Z,69.70
2018-05-09T04:10:06.037Z,69.70
2018-05-09T04:11:05.947Z,69.70
2018-05-09T04:12:09.454Z,69.30
2018-05-09T04:13:06.235Z,69.30
2018-05-09T04:14:06.041Z,69.20
2018-05-09T04:15:08.799Z,69.00
2018-05-09T04:16:07.396Z,69.00
2018-05-09T04:17:08.659Z,69.40
2018-05-09T04:18:11.307Z,69.30
2018-05-09T04:19:08.315Z,69.30
2018-05-09T04:20:06.350Z,69.40
2018-05-09T04:21:06.189Z,69.40
2018-05-09T04:22:06.401Z,69.50
2018-05-09T04:23:11.147Z,69.40
2018-05-09T04:24:06.525Z,69.20
2018-05-09T04:25:06.663Z,69.00
2018-05-09T04:26:05.604Z,68.80
2018-05-09T04:27:06.517Z,68.70
2018-05-09T04:28:11.231Z,68.10
2018-05-09T04:29:05.841Z,68.00
2018-05-09T04:30:10.547Z,67.60
2018-05-09T04:31:08.809Z,66.90
2018-05-09T04:32:14.055Z,66.50
2018-05-09T04:33:06.096Z,66.50
2018-05-09T04:34:06.189Z,65.80
2018-05-09T04:35:08.783Z,65.00
2018-05-09T04:36:09.229Z,64.50
2018-05-09T04:37:05.831Z,64.40
2018-05-09T04:38:09.403Z,63.20
2018-05-09T04:39:06.175Z,63.20
2018-05-09T04:40:06.036Z,62.70
2018-05-09T04:41:15.998Z,61.60
2018-05-09T04:42:05.945Z,61.60
2018-05-09T04:43:11.273Z,60.90
2018-05-09T04:44:05.755Z,60.20
2018-05-09T04:45:11.498Z,58.50
2018-05-09T04:46:06.651Z,58.50
2018-05-09T04:47:09.135Z,57.60
2018-05-09T04:48:06.170Z,57.60
2018-05-09T04:49:10.992Z,56.90
2018-05-09T04:50:09.019Z,56.80
2018-05-09T04:51:13.203Z,56.70
2018-05-09T04:52:05.773Z,56.60
2018-05-09T04:53:06.749Z,56.60
2018-05-09T04:54:06.426Z,56.50
2018-05-09T04:55:05.601Z,56.40
2018-05-09T04:56:11.387Z,55.90
2018-05-09T04:57:11.015Z,55.70
2018-05-09T04:58:05.727Z,55.70
2018-05-09T04:59:06.365Z,55.30
2018-05-09T05:00:06.150Z,55.10
2018-05-09T05:01:11.099Z,54.80
2018-05-09T05:02:05.702Z,54.70
2018-05-09T05:03:11.548Z,54.20
2018-05-09T05:04:10.845Z,54.20
2018-05-09T05:05:06.828Z,54.20
2018-05-09T05:06:05.910Z,54.30
2018-05-09T05:07:08.309Z,54.80
2018-05-09T05:08:05.844Z,54.80
2018-05-09T05:09:10.754Z,55.00
2018-05-09T05:10:08.890Z,55.40
2018-05-09T05:11:11.649Z,55.00
2018-05-09T05:12:11.094Z,54.70
2018-05-09T05:13:09.590Z,54.30
2018-05-09T05:14:05.515Z,54.30
2018-05-09T05:15:05.955Z,54.10
2018-05-09T05:16:09.455Z,53.00
2018-05-09T05:17:08.659Z,52.80
2018-05-09T05:18:08.944Z,52.20
2018-05-09T05:19:10.746Z,51.80
2018-05-09T05:20:06.065Z,51.80
2018-05-09T05:21:09.229Z,50.90
2018-05-09T05:22:08.767Z,50.50
2018-05-09T05:23:06.330Z,50.50
2018-05-09T05:24:08.752Z,49.60
2018-05-09T05:25:11.567Z,49.50
2018-05-09T05:26:06.106Z,49.00
2018-05-09T05:27:06.069Z,48.90
2018-05-09T05:28:06.786Z,48.10
2018-05-09T05:29:09.069Z,46.20
2018-05-09T05:30:08.547Z,45.90
2018-05-09T05:31:08.750Z,45.30
2018-05-09T05:32:06.252Z,45.40
2018-05-09T05:33:06.563Z,45.60
2018-05-09T05:34:08.413Z,45.30
2018-05-09T05:35:06.958Z,45.30
2018-05-09T05:36:11.291Z,44.70
2018-05-09T05:37:10.810Z,44.50
2018-05-09T05:38:06.537Z,44.40
2018-05-09T05:39:06.425Z,44.60
2018-05-09T05:40:08.924Z,44.10
2018-05-09T05:41:06.458Z,44.20
2018-05-09T05:42:10.705Z,43.10
2018-05-09T05:43:06.189Z,43.00
2018-05-09T05:44:06.652Z,42.80
2018-05-09T05:45:06.154Z,43.00
2018-05-09T05:46:06.344Z,42.90
2018-05-09T05:47:11.108Z,42.30
2018-05-09T05:48:06.213Z,42.30
2018-05-09T05:49:06.458Z,41.70
2018-05-09T05:50:08.683Z,41.10
2018-05-09T05:51:06.749Z,41.10
2018-05-09T05:52:06.875Z,40.50
2018-05-09T05:53:06.584Z,40.40
2018-05-09T05:54:10.992Z,40.30
2018-05-09T05:55:08.964Z,40.90
2018-05-09T05:56:07.170Z,40.90
2018-05-09T05:57:12.035Z,41.40
2018-05-09T05:58:05.756Z,41.50
2018-05-09T05:59:06.691Z,41.70
2018-05-09T06:00:11.276Z,42.30
2018-05-09T06:01:19.058Z,42.90
2018-05-09T06:02:05.915Z,43.00
2018-05-09T06:03:06.668Z,43.30
2018-05-09T06:04:11.403Z,44.10
2018-05-09T06:05:11.144Z,44.50
2018-05-09T06:06:06.159Z,44.40
2018-05-09T06:07:05.901Z,44.90
2018-05-09T06:08:05.952Z,45.50
2018-05-09T06:09:10.931Z,45.90
2018-05-09T06:10:08.091Z,46.20
2018-05-09T06:11:05.623Z,46.20
2018-05-09T06:12:06.098Z,46.20
2018-05-09T06:13:08.999Z,45.80
2018-05-09T06:14:10.667Z,45.80
2018-05-09T06:15:06.280Z,45.80
2018-05-09T06:16:05.623Z,45.60
2018-05-09T06:17:05.575Z,45.40
2018-05-09T06:18:06.695Z,45.20
2018-05-09T06:19:05.662Z,44.90
2018-05-09T06:20:08.933Z,43.90
2018-05-09T06:21:06.040Z,44.00
2018-05-09T06:22:06.059Z,44.00
2018-05-09T06:23:06.276Z,43.80
2018-05-09T06:24:08.932Z,42.50
2018-05-09T06:25:06.558Z,42.50
2018-05-09T06:26:08.795Z,42.00
2018-05-09T06:27:07.712Z,42.00
2018-05-09T06:28:06.649Z,41.80
2018-05-09T06:29:06.118Z,41.60
2018-05-09T06:30:05.822Z,41.00
2018-05-09T06:31:05.844Z,41.10
2018-05-09T06:32:06.429Z,40.90
2018-05-09T06:33:06.079Z,40.20
2018-05-09T06:34:06.401Z,39.90
2018-05-09T06:35:08.503Z,39.90
2018-05-09T06:36:08.604Z,39.60
2018-05-09T06:37:08.746Z,39.40
2018-05-09T06:38:09.010Z,39.20
2018-05-09T06:39:10.584Z,38.70
2018-05-09T06:40:06.111Z,38.70
2018-05-09T06:41:06.284Z,38.40
2018-05-09T06:42:06.022Z,38.40
2018-05-09T06:43:05.626Z,37.60
2018-05-09T06:44:08.105Z,37.60
2018-05-09T06:45:05.795Z,37.60
2018-05-09T06:46:05.486Z,37.50
2018-05-09T06:47:06.590Z,37.40
2018-05-09T06:48:06.499Z,36.80
2018-05-09T06:49:06.289Z,37.20
2018-05-09T06:50:06.749Z,36.50
2018-05-09T06:51:06.033Z,36.10
2018-05-09T06:52:09.569Z,36.60
2018-05-09T06:53:06.324Z,36.50
2018-05-09T06:54:06.560Z,36.50
2018-05-09T06:55:06.915Z,36.60
2018-05-09T06:56:08.320Z,36.70
2018-05-09T06:57:10.755Z,36.70
2018-05-09T06:58:08.090Z,35.80
2018-05-09T06:59:05.954Z,35.70
2018-05-09T07:00:05.955Z,36.00
2018-05-09T07:01:08.703Z,35.90
2018-05-09T07:02:06.418Z,35.90
2018-05-09T07:03:06.774Z,35.90
2018-05-09T07:04:11.679Z,35.70
2018-05-09T07:05:08.727Z,35.50
2018-05-09T07:06:06.424Z,35.50
2018-05-09T07:07:06.102Z,35.70
2018-05-09T07:08:10.830Z,35.50
2018-05-09T07:09:06.262Z,35.50
2018-05-09T07:10:11.077Z,35.90
2018-05-09T07:11:08.176Z,36.20
2018-05-09T07:12:06.181Z,36.20
2018-05-09T07:13:08.254Z,36.10
2018-05-09T07:14:05.755Z,36.10
2018-05-09T07:15:06.640Z,36.50
2018-05-09T07:16:06.842Z,36.30
2018-05-09T07:17:07.068Z,36.50
2018-05-09T07:18:06.308Z,36.70
2018-05-09T07:19:08.900Z,36.20
2018-05-09T07:20:10.483Z,36.20
2018-05-09T07:21:06.601Z,36.40
2018-05-09T07:22:11.210Z,36.00
2018-05-09T07:23:10.948Z,36.00
2018-05-09T07:24:06.280Z,36.00
2018-05-09T07:25:09.136Z,36.30
2018-05-09T07:26:09.165Z,36.10
2018-05-09T07:27:11.027Z,36.10
2018-05-09T07:28:08.055Z,36.00
2018-05-09T07:29:05.546Z,36.00
2018-05-09T07:30:12.424Z,36.00
2018-05-09T07:31:06.612Z,36.00
2018-05-09T07:32:06.425Z,35.50
2018-05-09T07:33:05.760Z,35.30
2018-05-09T07:34:09.388Z,35.40
2018-05-09T07:35:06.995Z,35.40
2018-05-09T07:36:05.742Z,35.50
2018-05-09T07:37:06.872Z,35.30
2018-05-09T07:38:08.217Z,35.50
2018-05-09T07:39:09.491Z,35.60
2018-05-09T07:40:06.187Z,35.70
2018-05-09T07:41:06.355Z,36.00
2018-05-09T07:42:05.947Z,35.90
2018-05-09T07:43:06.926Z,35.40
2018-05-09T07:44:06.976Z,35.30
2018-05-09T07:45:11.139Z,35.60
2018-05-09T07:46:08.386Z,36.80
2018-05-09T07:47:11.268Z,37.00
2018-05-09T07:48:05.591Z,37.10
2018-05-09T07:49:11.052Z,37.80
2018-05-09T07:50:05.646Z,37.80
2018-05-09T07:51:11.422Z,38.00
2018-05-09T07:52:07.147Z,38.00
2018-05-09T07:53:12.122Z,38.60
2018-05-09T07:54:11.165Z,38.70
2018-05-09T07:55:06.357Z,38.50
2018-05-09T07:56:06.688Z,38.50
2018-05-09T07:57:11.148Z,38.90
2018-05-09T07:58:10.848Z,39.00
2018-05-09T07:59:06.842Z,39.00
2018-05-09T08:00:06.078Z,39.50
2018-05-09T08:01:08.357Z,39.60
2018-05-09T08:02:11.160Z,39.70
2018-05-09T08:03:08.335Z,39.70
2018-05-09T08:04:10.903Z,39.50
2018-05-09T08:05:08.948Z,39.50
2018-05-09T08:06:08.413Z,39.70
2018-05-09T08:07:08.621Z,40.00
2018-05-09T08:08:05.821Z,40.00
2018-05-09T08:09:05.737Z,40.40
2018-05-09T08:10:05.943Z,40.90
2018-05-09T08:11:10.902Z,39.50
2018-05-09T08:12:06.974Z,39.40
2018-05-09T08:13:06.107Z,38.70
2018-05-09T08:14:06.167Z,38.80
2018-05-09T08:15:06.336Z,39.40
2018-05-09T08:16:05.672Z,38.90
2018-05-09T08:17:08.365Z,38.40
2018-05-09T08:18:06.461Z,38.40
2018-05-09T08:19:05.884Z,38.40
2018-05-09T08:20:05.578Z,38.50
2018-05-09T08:21:11.903Z,38.60
2018-05-09T08:22:14.791Z,38.80
2018-05-09T08:23:06.730Z,38.80
2018-05-09T08:24:05.724Z,38.70
2018-05-09T08:25:06.681Z,38.70
2018-05-09T08:26:08.654Z,38.50
2018-05-09T08:27:09.268Z,38.30
2018-05-09T08:28:06.821Z,38.30
2018-05-09T08:29:06.051Z,38.30
2018-05-09T08:30:06.035Z,38.40
2018-05-09T08:31:06.202Z,38.20
2018-05-09T08:32:05.790Z,38.20
2018-05-09T08:33:05.702Z,38.00
2018-05-09T08:34:05.761Z,37.60
2018-05-09T08:35:11.355Z,37.90
2018-05-09T08:36:11.206Z,37.90
2018-05-09T08:37:08.783Z,37.10
2018-05-09T08:38:11.395Z,37.10
2018-05-09T08:39:16.088Z,37.30
2018-05-09T08:40:05.863Z,37.30
2018-05-09T08:41:09.050Z,37.10
2018-05-09T08:42:10.618Z,37.40
2018-05-09T08:43:06.347Z,37.40
2018-05-09T08:44:08.353Z,37.00
2018-05-09T08:45:05.806Z,37.10
2018-05-09T08:46:08.084Z,37.20
2018-05-09T08:47:10.664Z,37.30
2018-05-09T08:48:06.150Z,37.10
2018-05-09T08:49:06.246Z,37.10
2018-05-09T08:50:08.126Z,37.20
2018-05-09T08:51:05.882Z,37.20
2018-05-09T08:52:06.235Z,37.10
2018-05-09T08:53:06.394Z,37.30
2018-05-09T08:54:06.480Z,37.70
2018-05-09T08:55:05.808Z,37.20
2018-05-09T08:56:05.798Z,37.40
2018-05-09T08:57:16.450Z,37.50
2018-05-09T08:58:05.964Z,36.90
2018-05-09T08:59:06.139Z,37.00
2018-05-09T09:00:06.033Z,36.50
2018-05-09T09:01:11.535Z,36.00
2018-05-09T09:02:06.042Z,36.00
2018-05-09T09:03:08.779Z,35.70
2018-05-09T09:04:07.400Z,35.70
2018-05-09T09:05:05.992Z,35.70
2018-05-09T09:06:05.951Z,35.60
2018-05-09T09:07:10.637Z,35.60
2018-05-09T09:08:06.080Z,35.60
2018-05-09T09:09:06.597Z,35.70
2018-05-09T09:10:06.273Z,36.20
2018-05-09T09:11:09.660Z,36.60
2018-05-09T09:12:06.299Z,36.60
2018-05-09T09:13:05.993Z,36.40
2018-05-09T09:14:09.345Z,37.20
2018-05-09T09:15:05.994Z,37.30
2018-05-09T09:16:08.361Z,36.70
2018-05-09T09:17:06.441Z,36.60
2018-05-09T09:18:06.161Z,35.90
2018-05-09T09:19:11.465Z,35.80
2018-05-09T09:20:08.505Z,35.90
2018-05-09T09:21:06.210Z,36.00
2018-05-09T09:22:08.663Z,36.20
2018-05-09T09:23:09.057Z,36.30
2018-05-09T09:24:05.943Z,36.30
2018-05-09T09:25:11.519Z,36.80
2018-05-09T09:26:06.098Z,36.90
2018-05-09T09:27:05.771Z,37.00
2018-05-09T09:28:06.818Z,36.50
2018-05-09T09:29:05.627Z,35.90
2018-05-09T09:30:05.614Z,36.30
2018-05-09T09:31:06.563Z,36.00
2018-05-09T09:32:11.409Z,36.10
2018-05-09T09:33:05.964Z,36.00
2018-05-09T09:34:07.029Z,36.60
2018-05-09T09:35:09.070Z,36.60
2018-05-09T09:36:05.855Z,36.60
2018-05-09T09:37:10.676Z,35.70
2018-05-09T09:38:06.530Z,35.70
2018-05-09T09:39:11.351Z,36.00
2018-05-09T09:40:05.684Z,35.70
2018-05-09T09:41:11.461Z,35.50
2018-05-09T09:42:11.036Z,36.00
2018-05-09T09:43:08.242Z,35.70
2018-05-09T09:44:05.846Z,35.70
2018-05-09T09:45:05.851Z,36.00
2018-05-09T09:46:06.263Z,35.50
2018-05-09T09:47:06.073Z,35.10
2018-05-09T09:48:06.030Z,35.60
2018-05-09T09:49:06.545Z,35.50
2018-05-09T09:50:05.678Z,35.70
2018-05-09T09:51:11.560Z,35.10
2018-05-09T09:52:08.757Z,34.90
2018-05-09T09:53:06.501Z,34.90
2018-05-09T09:54:06.159Z,35.20
2018-05-09T09:55:05.993Z,35.30
2018-05-09T09:56:06.736Z,35.90
2018-05-09T09:57:05.646Z,35.30
2018-05-09T09:58:06.514Z,34.80
2018-05-09T09:59:07.232Z,35.00
2018-05-09T10:00:08.559Z,35.00
2018-05-09T10:01:08.688Z,35.50
2018-05-09T10:02:08.832Z,35.20
2018-05-09T10:03:07.015Z,35.20
2018-05-09T10:04:09.623Z,35.00
2018-05-09T10:05:06.634Z,35.00
2018-05-09T10:06:06.063Z,35.10
2018-05-09T10:07:13.365Z,35.20
2018-05-09T10:08:06.426Z,35.20
2018-05-09T10:09:08.603Z,35.90
2018-05-09T10:10:11.304Z,34.90
2018-05-09T10:11:05.932Z,34.90
2018-05-09T10:12:08.367Z,35.70
2018-05-09T10:13:06.348Z,35.70
2018-05-09T10:14:06.317Z,35.70
2018-05-09T10:15:06.205Z,35.30
2018-05-09T10:16:08.982Z,35.80
2018-05-09T10:17:05.823Z,35.80
2018-05-09T10:18:11.495Z,36.20
2018-05-09T10:19:09.191Z,36.40
2018-05-09T10:20:10.744Z,36.30
2018-05-09T10:21:09.023Z,36.70
2018-05-09T10:22:05.678Z,36.80
2018-05-09T10:23:06.554Z,36.70
2018-05-09T10:24:09.780Z,35.90
2018-05-09T10:25:11.337Z,35.90
2018-05-09T10:26:08.566Z,35.50
2018-05-09T10:27:08.993Z,35.20
2018-05-09T10:28:05.952Z,35.30
2018-05-09T10:29:10.781Z,35.10
2018-05-09T10:30:06.390Z,35.20
2018-05-09T10:31:09.222Z,35.20
2018-05-09T10:32:13.481Z,34.20
2018-05-09T10:33:06.329Z,34.20
2018-05-09T10:34:06.600Z,34.10
2018-05-09T10:35:06.187Z,34.40
2018-05-09T10:36:05.628Z,34.40
2018-05-09T10:37:11.300Z,35.20
2018-05-09T10:38:05.897Z,35.10
2018-05-09T10:39:08.451Z,35.30
2018-05-09T10:40:06.200Z,35.30
2018-05-09T10:41:06.119Z,35.30
2018-05-09T10:42:08.504Z,35.40
2018-05-09T10:43:08.562Z,35.70
2018-05-09T10:44:06.758Z,35.70
2018-05-09T10:45:09.173Z,35.50
2018-05-09T10:46:10.966Z,35.50
2018-05-09T10:47:06.144Z,35.80
2018-05-09T10:48:06.170Z,35.90
2018-05-09T10:49:05.719Z,35.70
2018-05-09T10:50:06.035Z,35.70
2018-05-09T10:51:13.309Z,35.40
2018-05-09T10:52:06.057Z,35.40
2018-05-09T10:53:06.162Z,35.50
2018-05-09T10:54:13.421Z,36.10
2018-05-09T10:55:11.217Z,36.10
2018-05-09T10:56:06.806Z,36.80
2018-05-09T10:57:06.046Z,37.10
2018-05-09T10:58:06.668Z,37.50
2018-05-09T10:59:05.961Z,36.60
2018-05-09T11:00:09.098Z,36.30
2018-05-09T11:01:10.706Z,36.30
2018-05-09T11:02:08.734Z,36.10
2018-05-09T11:03:11.020Z,36.20
2018-05-09T11:04:05.605Z,36.30
2018-05-09T11:05:06.494Z,36.00
2018-05-09T11:06:06.625Z,36.20
2018-05-09T11:07:07.076Z,35.70
2018-05-09T11:08:06.165Z,35.80
2018-05-09T11:09:07.376Z,35.40
2018-05-09T11:10:08.514Z,35.90
2018-05-09T11:11:09.188Z,36.50
2018-05-09T11:12:06.283Z,36.50
2018-05-09T11:13:06.688Z,36.60
2018-05-09T11:14:08.601Z,36.50
2018-05-09T11:15:08.681Z,36.60
2018-05-09T11:16:08.542Z,36.80
2018-05-09T11:17:06.228Z,36.90
2018-05-09T11:18:05.910Z,36.60
2018-05-09T11:19:09.860Z,36.60
2018-05-09T11:20:09.058Z,36.70
2018-05-09T11:21:09.061Z,36.50
2018-05-09T11:22:08.979Z,36.70
2018-05-09T11:23:05.696Z,36.70
2018-05-09T11:24:11.635Z,36.30
2018-05-09T11:25:06.168Z,36.30
2018-05-09T11:26:06.440Z,36.50
2018-05-09T11:27:13.071Z,36.00
2018-05-09T11:28:05.704Z,36.00
2018-05-09T11:29:07.048Z,35.70
2018-05-09T11:30:06.118Z,35.60
2018-05-09T11:31:06.360Z,35.60
2018-05-09T11:32:08.807Z,36.00
2018-05-09T11:33:08.931Z,36.20
2018-05-09T11:34:09.122Z,36.80
2018-05-09T11:35:06.114Z,36.70
2018-05-09T11:36:08.489Z,36.60
2018-05-09T11:37:06.489Z,36.40
2018-05-09T11:38:11.196Z,36.00
2018-05-09T11:39:06.366Z,36.00
2018-05-09T11:40:05.954Z,36.80
2018-05-09T11:41:05.684Z,36.40
2018-05-09T11:42:08.091Z,35.90
2018-05-09T11:43:09.325Z,36.00
2018-05-09T11:44:10.895Z,36.10
2018-05-09T11:45:09.060Z,36.60
2018-05-09T11:46:08.332Z,36.80
2018-05-09T11:47:05.977Z,36.80
2018-05-09T11:48:05.829Z,37.00
2018-05-09T11:49:05.769Z,37.10
2018-05-09T11:50:06.460Z,37.50
2018-05-09T11:51:09.914Z,37.70
2018-05-09T11:52:11.155Z,37.70
2018-05-09T11:53:05.965Z,37.70
2018-05-09T11:54:05.959Z,37.70
2018-05-09T11:55:05.588Z,37.50
2018-05-09T11:56:06.140Z,37.40
2018-05-09T11:57:05.731Z,37.50
2018-05-09T11:58:06.483Z,36.90
2018-05-09T11:59:08.919Z,36.00
2018-05-09T12:00:10.651Z,36.00
2018-05-09T12:01:09.419Z,35.50
2018-05-09T12:02:13.828Z,35.60
2018-05-09T12:03:06.450Z,35.60
2018-05-09T12:04:06.510Z,35.50
2018-05-09T12:05:08.790Z,35.50
2018-05-09T12:06:06.417Z,35.50
2018-05-09T12:07:06.009Z,35.70
2018-05-09T12:08:05.992Z,35.60
2018-05-09T12:09:05.731Z,35.70
2018-05-09T12:10:06.485Z,36.10
2018-05-09T12:11:06.861Z,36.70
2018-05-09T12:12:08.558Z,35.80
2018-05-09T12:13:06.253Z,35.80
2018-05-09T12:14:05.959Z,35.70
2018-05-09T12:15:06.130Z,35.90
2018-05-09T12:16:08.714Z,35.70
2018-05-09T12:17:06.807Z,35.70
2018-05-09T12:18:06.820Z,36.00
2018-05-09T12:19:06.545Z,36.10
2018-05-09T12:20:08.416Z,37.20
2018-05-09T12:21:05.816Z,37.20
2018-05-09T12:22:08.151Z,36.10
2018-05-09T12:23:08.746Z,35.70
2018-05-09T12:24:06.337Z,35.60
2018-05-09T12:25:11.312Z,35.20
2018-05-09T12:26:06.306Z,35.20
2018-05-09T12:27:06.729Z,35.60
2018-05-09T12:28:05.924Z,36.20
2018-05-09T12:29:06.567Z,36.50
2018-05-09T12:30:06.147Z,36.90
2018-05-09T12:31:10.940Z,36.90
2018-05-09T12:32:06.360Z,36.50
2018-05-09T12:33:06.370Z,36.10
2018-05-09T12:34:06.283Z,35.90
2018-05-09T12:35:08.995Z,36.10
2018-05-09T12:36:05.584Z,36.10
2018-05-09T12:37:06.335Z,36.20
2018-05-09T12:38:06.988Z,36.30
2018-05-09T12:39:05.657Z,36.40
2018-05-09T12:40:05.980Z,36.60
2018-05-09T12:41:05.818Z,36.10
2018-05-09T12:42:11.035Z,34.70
2018-05-09T12:43:09.022Z,35.00
2018-05-09T12:44:05.571Z,35.10
2018-05-09T12:45:05.621Z,35.20
2018-05-09T12:46:06.955Z,35.40
2018-05-09T12:47:10.956Z,35.90
2018-05-09T12:48:05.622Z,35.80
2018-05-09T12:49:08.914Z,35.60
2018-05-09T12:50:07.064Z,35.60
2018-05-09T12:51:06.446Z,35.20
2018-05-09T12:52:07.442Z,35.40